Skip to main content.
 TIME   TEMPERATURE   WINDSPEED   DIRECTION   HUMIDITY   BAROMETER   RAINFALL 
0:35 28.0°C (82.4°F) 7.4 kmh (4.6 mph) NE 74% 1013.9hPa (29.94 inHg) 0.0mm (0.00 in.)
23:34 28.0°C (82.4 °F) 7.4 kmh (4.6 mph) NE 74% 1013.9hPa (29.94 inHg) 0.0mm (0.00 in.)
22:34 28.0°C (82.4 °F) 3.7 kmh (2.3 mph) NNE 74% 1013.9hPa (29.94 inHg) 0.0mm (0.00 in.)
21:28 28.0°C (82.4 °F) 11.1 kmh (6.9 mph) SW 78% 1013.9hPa (29.94 inHg) 0.0mm (0.00 in.)
20:28 31.0°C (87.8 °F) 11.1 kmh (6.9 mph) NE 62% 1011.9hPa (29.88 inHg) 0.0mm (0.00 in.)
19:27 31.0°C (87.8 °F) 11.1 kmh (6.9 mph) NE 62% 1011.9hPa (29.88 inHg) 0.0mm (0.00 in.)
18:27 31.0°C (87.8 °F) 13.0 kmh (8.1 mph) NNE 62% 1011.9hPa (29.88 inHg) 0.0mm (0.00 in.)
17:27 33.0°C (91.4 °F) 9.3 kmh (5.8 mph) NE 55% 1011.9hPa (29.88 inHg) 0.0mm (0.00 in.)
16:27 33.0°C (91.4 °F) 11.1 kmh (6.9 mph) E 55% 1011.9hPa (29.88 inHg) 0.0mm (0.00 in.)
15:27 32.0°C (89.6 °F) 14.8 kmh (9.2 mph) NE 62% 1012.9hPa (29.91 inHg) 0.0mm (0.00 in.)
14:27 32.0°C (89.6 °F) 16.7 kmh (10.4 mph) NE 62% 1012.9hPa (29.91 inHg) 0.0mm (0.00 in.)
13:27 32.0°C (89.6 °F) 14.8 kmh (9.2 mph) NNE 62% 1012.9hPa (29.91 inHg) 0.0mm (0.00 in.)
12:27 32.0°C (89.6 °F) 14.8 kmh (9.2 mph) NE 59% 1012.9hPa (29.91 inHg) 0.0mm (0.00 in.)
11:27 30.0°C (86.0 °F) 5.6 kmh (3.5 mph) E 58% 1011.9hPa (29.88 inHg) 0.0mm (0.00 in.)
10:27 30.0°C (86.0 °F) 5.6 kmh (3.5 mph) E 58% 1011.9hPa (29.88 inHg) 0.0mm (0.00 in.)
9:27 30.0°C (86.0 °F) 5.6 kmh (3.5 mph) E 58% 1011.9hPa (29.88 inHg) 0.0mm (0.00 in.)
8:27 25.0°C (77.0 °F) 3.7 kmh (2.3 mph) SW 83% 1010.8hPa (29.85 inHg) 0.0mm (0.00 in.)
7:27 25.0°C (77.0 °F) 3.7 kmh (2.3 mph) SW 83% 1010.8hPa (29.85 inHg) 0.0mm (0.00 in.)
6:27 24.0°C (75.2 °F) 3.7 kmh (2.3 mph) SW 88% 1010.8hPa (29.85 inHg) 0.0mm (0.00 in.)
5:27 24.0°C (75.2 °F) 3.7 kmh (2.3 mph) SW 94% 1010.8hPa (29.85 inHg) 0.0mm (0.00 in.)
4:27 25.0°C (77.0 °F) 1.9 kmh (1.2 mph) E 88% 1010.8hPa (29.85 inHg) 0.0mm (0.00 in.)
3:27 26.0°C (78.8 °F) 5.6 kmh (3.5 mph) SW 83% 1010.8hPa (29.85 inHg) 0.0mm (0.00 in.)
2:27 26.0°C (78.8 °F) 3.7 kmh (2.3 mph) NNW 88% 1010.8hPa (29.85 inHg) 0.0mm (0.00 in.)
1:27 26.0°C (78.8 °F) 5.6 kmh (3.5 mph) WNW 88% 1010.8hPa (29.85 inHg) 0.0mm (0.00 in.)